Tiempo atmosférico en la estación meteorológica de Fonfría, Teruel (1262 m.)



Fecha
DESCASC
Temp. máxima en grados centígrados (hora)
DESCASC
Temp. mínima en grados centígrados (hora)
DESCASC
Temp. media en grados centígrados
DESCASC
Racha de viento máxima en m/sg (hora)
DESCASC
Velocidad máxima media en intervalos de 10 minutos(hora)
DESCASC
Precipitaciones diarias en mm
DESCASC
Precipitaciones de 00:00 a 06:00 en mm
DESCASC
Precipitaciones de 06:00 a 12:00 en mm
DESCASC
Precipitaciones de 12:00 a 18:00 en mm
DESCASC
Precipitaciones de 18:00 a 24:00 en mm
DESCASC
24-09-2020 16.4 (15:20) 11.1 (23:59) 13.8 11.94 (16:10) 7.22 (23:00) 5.2 0 1 4.2 0
23-09-2020 20.1 (15:00) 10.9 (00:00) 15.5 12.22 (14:40) 6.67 (18:30) 0 0 0 0 0
22-09-2020 21.4 (15:00) 9.3 (00:00) 15.3 10.28 (15:20) 5 (07:40) 0 0 0 0 0
21-09-2020 19.6 (16:40) 11 (00:00) 15.3 8.89 (12:30) 6.67 (13:40) 0 0 0 0 0
20-09-2020 20.1 (16:00) 11.3 (00:00) 15.7 11.67 (04:10) 8.33 (02:50) 0 0 0 0 0
19-09-2020 20 (15:10) 10.9 (00:00) 15.4 13.89 (14:40) 7.78 (14:40) 0 0 0 0 0
18-09-2020 19.3 (13:20) 11.1 (00:00) 15.2 13.61 (08:00) 8.06 (08:00) 8 0.4 0.4 1.2 6
17-09-2020 23.9 (14:30) 16.7 (00:00) 20.3 11.94 (15:20) 7.22 (07:40) 0 0 0 0 0
16-09-2020 26 (14:10) 14.8 (06:10) 20.4 8.06 (17:30) 6.39 (02:00) 0 0 0 0 0
15-09-2020 27.1 (16:20) 14 (00:00) 20.6 13.06 (01:30) 6.94 (01:30) 1 1 0 0 0
14-09-2020 27.4 (17:20) 14.9 (00:00) 21.1 9.72 (05:20) 8.33 (05:00) 0 0 0 0 0
13-09-2020 28 (16:30) 14.4 (00:00) 21.2 9.17 (15:20) 7.5 (09:00) 0 0 0 0 0
12-09-2020 24.6 (16:20) 13.2 (06:20) 18.9 8.33 (17:40) 4.44 (17:50) 0 0 0 0 0
11-09-2020 25.9 (16:50) 11.6 (00:00) 18.8 7.5 (00:20) 4.44 (13:10) 0 0 0 0 0
10-09-2020 22.7 (16:40) 10.4 (00:00) 16.6 10 (16:20) 6.11 (16:20) 0 0 0 0 0
09-09-2020 21.3 (17:00) 11.1 (04:50) 16.2 6.11 (17:40) 4.17 (17:40) 0 0 0 0 0
08-09-2020 19.5 (16:30) 5.9 (00:00) 12.7 9.44 (14:40) 5 (15:10) 0 0 0 0 0
07-09-2020 16.7 (17:10) 7.6 (07:30) 12.2 16.11 (10:50) 11.11 (10:50) 0 0 0 0 0
06-09-2020 22.5 (14:20) 10.3 (00:00) 16.4 8.33 (21:50) 5.28 (21:50) 0 0 0 0 0
05-09-2020 24.9 (16:30) 13.7 (00:00) 19.3 8.61 (01:10) 7.5 (01:10) 0 0 0 0 0
04-09-2020 26.9 (14:50) 13.9 (00:00) 20.4 8.61 (16:50) 6.67 (03:10) 0 0 0 0 0
03-09-2020 25.1 (14:50) 10.6 (00:00) 17.9 6.94 (17:20) 4.72 (17:50) 0 0 0 0 0
02-09-2020 22.1 (17:00) 8.9 (00:00) 15.5 7.78 (15:20) 5 (14:20) 0 0 0 0 0
01-09-2020 19.7 (12:30) 9.7 (00:00) 14.7 6.67 (23:10) 4.72 (11:20) 0 0 0 0 0
31-08-2020 21.3 (16:30) 5.4 (00:00) 13.3 8.61 (03:00) 6.11 (02:50) 0 0 0 0 0
30-08-2020 16.3 (16:40) 4.5 (00:00) 10.4 13.61 (00:40) 9.17 (01:20) 0 0 0 0 0
29-08-2020 17.6 (16:50) 8.8 (00:00) 13.2 14.17 (19:30) 8.89 (19:30) 1 0 0 0 1
28-08-2020 24.9 (13:50) 10.4 (00:00) 17.6 8.89 (17:50) 5.83 (18:00) 0 0 0 0 0
27-08-2020 29 (15:30) 17.6 (00:00) 23.3 7.22 (14:00) 4.72 (23:40) 0 0 0 0 0
26-08-2020 29.5 (17:20) 17.7 (00:00) 23.6 10.28 (03:00) 7.78 (03:00) 0 0 0 0 0

Gráficas

Temp. máximas Temp. mínimas Temp. medias Precipitaciones Rachas de viento máximas Velocidades máximas media en intervalos de 10 minutos

Datos horarios

Fecha y hora oficial Temperatura (ºC) Velocidad del viento (km/h) Dirección del viento Racha (km/h) Dirección de racha Precipitación (mm) Presión (hPa) Tendencia (hPa) Humedad (%)
2020-09-24 23:00:00 12.2 26 Noroeste 39 Noroeste 0 -- -- 72
2020-09-24 22:00:00 12.7 19 Noroeste 34 Noroeste 0 -- -- 68
2020-09-24 21:00:00 13.7 17 Noroeste 28 Noroeste 0 -- -- 74
2020-09-24 20:00:00 14.5 14 Noroeste 34 Noroeste 0 -- -- 81
2020-09-24 19:00:00 15.3 13 Noroeste 24 Oeste 0 -- -- 75
2020-09-24 18:00:00 15.3 10 Noroeste 33 Noroeste 0 -- -- 76
2020-09-24 17:00:00 15.7 17 Noroeste 43 Oeste 0 -- -- 75
2020-09-24 16:00:00 16.2 24 Noroeste 40 Noroeste 0 -- -- 81
2020-09-24 15:00:00 15.9 18 Noroeste 40 Noroeste 0.2 -- -- 87
2020-09-24 14:00:00 14.6 13 Noroeste 33 Noroeste 0.8 -- -- 92
2020-09-24 13:00:00 12.8 15 Oeste 27 Oeste 3.2 -- -- 96
2020-09-24 12:00:00 13.4 18 Oeste 30 Oeste 1 -- -- 94
2020-09-24 11:00:00 14.5 14 Oeste 26 Sudoeste 0 -- -- 83
2020-09-24 10:00:00 13.4 5 Noroeste 22 Oeste 0 -- -- 89
2020-09-24 09:00:00 13 9 Noroeste 21 Noroeste 0 -- -- 89
2020-09-24 08:00:00 12.9 10 Oeste 27 Oeste 0 -- -- 89
2020-09-24 07:00:00 12.9 10 Oeste 16 Oeste 0 -- -- 88
2020-09-24 06:00:00 13.1 10 Oeste 29 Oeste 0 -- -- 87
2020-09-24 05:00:00 12.6 12 Oeste 23 Oeste 0 -- -- 88
2020-09-24 04:00:00 13 15 Oeste 27 Oeste 0 -- -- 86
2020-09-24 03:00:00 12.9 14 Oeste 20 Oeste 0 -- -- 85
2020-09-24 02:00:00 13.2 8 Oeste 18 Sudoeste 0 -- -- 85
2020-09-24 01:00:00 14 11 Oeste 27 Oeste 0 -- -- 80
2020-09-24 00:00:00 14.5 16 Oeste 28 Oeste 0 -- -- 78
2020-09-23 23:00:00 15.3 18 Oeste 30 Oeste 0 -- -- 73
2020-09-23 22:00:00 15 12 Oeste 26 Oeste 0 -- -- 74
2020-09-23 21:00:00 15 14 Noroeste 25 Noroeste 0 -- -- 71
2020-09-23 20:00:00 15.8 13 Oeste 23 Noroeste 0 -- -- 74
2020-09-23 19:00:00 15.8 9 Noroeste 36 Norte 0 -- -- 74
2020-09-23 18:00:00 18.5 14 Noroeste 34 Noroeste 0 -- -- 61
2020-09-23 17:00:00 19 16 Noroeste 37 Oeste 0 -- -- 61
2020-09-23 16:00:00 18.7 15 Noroeste 39 Noroeste 0 -- -- 60
2020-09-23 15:00:00 20.1 17 Noroeste 44 Oeste 0 -- -- 55
2020-09-23 14:00:00 19.5 21 Noroeste 39 Noroeste 0 -- -- 60
2020-09-23 13:00:00 18.5 13 Oeste 30 Oeste 0 -- -- 63
2020-09-23 12:00:00 19.3 13 Oeste 30 Oeste 0 -- -- 63
2020-09-23 11:00:00 16.3 14 Oeste 26 Oeste 0 -- -- 71
2020-09-23 10:00:00 16.5 12 Oeste 25 Oeste 0 -- -- 66
2020-09-23 09:00:00 12.7 12 Sudoeste 21 Oeste 0 -- -- 81
2020-09-23 08:00:00 12.1 15 Oeste 24 Oeste 0 -- -- 81
2020-09-23 07:00:00 11.5 12 Oeste 22 Oeste 0 -- -- 83
2020-09-23 06:00:00 11.7 17 Oeste 24 Oeste 0 -- -- 80
2020-09-23 05:00:00 11.4 18 Oeste 22 Sudoeste 0 -- -- 78
2020-09-23 04:00:00 12 18 Oeste 24 Sudoeste 0 -- -- 73
2020-09-23 03:00:00 11.1 22 Sudoeste 24 Sudoeste 0 -- -- 72
2020-09-23 02:00:00 12.8 15 Oeste 21 Oeste 0 -- -- 67
2020-09-23 01:00:00 13.3 14 Oeste 21 Oeste 0 -- -- 65
2020-09-23 00:00:00 13.1 12 Oeste 28 Noroeste 0 -- -- 68
2020-09-22 23:00:00 14.3 14 Oeste 20 Oeste 0 -- -- 58
2020-09-22 22:00:00 14.8 8 Oeste 22 Noroeste 0 -- -- 56
2020-09-22 21:00:00 15.9 10 Oeste 15 Oeste 0 -- -- 52
2020-09-22 20:00:00 16.9 8 Oeste 17 Oeste 0 -- -- 50
2020-09-22 19:00:00 18.9 8 Noroeste 24 Noroeste 0 -- -- 48
2020-09-22 18:00:00 19.3 11 Noroeste 23 Oeste 0 -- -- 46
2020-09-22 17:00:00 21.1 8 Norte 20 Oeste 0 -- -- 41
2020-09-22 16:00:00 20.3 7 Sudoeste 37 Noroeste 0 -- -- 43
2020-09-22 15:00:00 21.4 15 Sudoeste 27 Sudoeste 0 -- -- 39
2020-09-22 14:00:00 20.5 8 Oeste 23 Noroeste 0 -- -- 42
2020-09-22 13:00:00 18.9 11 Noroeste 23 Oeste 0 -- -- 48
2020-09-22 12:00:00 18.1 12 Oeste 23 Oeste 0 -- -- 55
2020-09-22 11:00:00 17.1 11 Oeste 18 Oeste 0 -- -- 63
2020-09-22 10:00:00 14.5 3 Este 5 Este 0 -- -- 79
2020-09-22 09:00:00 12.3 0 Calma 17 Sudoeste 0 -- -- 88
2020-09-22 08:00:00 9.7 17 Sudoeste 21 Sudoeste 0 -- -- 94
2020-09-22 07:00:00 9.8 6 Sudoeste 10 Sudoeste 0 -- -- 91
2020-09-22 06:00:00 10.4 5 Sur 10 Sudeste 0 -- -- 90
2020-09-22 05:00:00 9.8 3 Sudoeste 7 Sudoeste 0 -- -- 91
2020-09-22 04:00:00 9.5 4 Sudoeste 7 Sudoeste 0 -- -- 92
2020-09-22 03:00:00 10.7 0 Calma 13 Norte 0 -- -- 91
2020-09-22 02:00:00 11.9 9 Norte 17 Norte 0 -- -- 87
2020-09-22 01:00:00 12.8 3 Noroeste 6 Noroeste 0 -- -- 80
2020-09-22 00:00:00 13.1 0 Calma 9 Oeste 0 -- -- 78
2020-09-21 23:00:00 12.7 5 Oeste 9 Oeste 0 -- -- 80
2020-09-21 22:00:00 12.8 4 Oeste 11 Norte 0 -- -- 83
2020-09-21 21:00:00 13.5 4 Noroeste 10 Norte 0 -- -- 80
2020-09-21 20:00:00 15.1 6 Nordeste 14 Noroeste 0 -- -- 73
2020-09-21 19:00:00 17.5 6 Noroeste 19 Norte 0 -- -- 62
2020-09-21 18:00:00 17.7 15 Norte 25 Noroeste 0 -- -- 61
2020-09-21 17:00:00 19.1 15 Noroeste 29 Norte 0 -- -- 56
2020-09-21 16:00:00 18.6 15 Noroeste 28 Norte 0 -- -- 60
2020-09-21 15:00:00 16.7 12 Noroeste 22 Noroeste 0 -- -- 69
2020-09-21 14:00:00 15.6 17 Noroeste 32 Noroeste 0 -- -- 79
2020-09-21 13:00:00 16.3 17 Oeste 32 Noroeste 0 -- -- 69
2020-09-21 12:00:00 15.7 14 Oeste 28 Noroeste 0 -- -- 74
2020-09-21 11:00:00 14.7 12 Noroeste 23 Oeste 0 -- -- 81
2020-09-21 10:00:00 13.9 13 Noroeste 23 Noroeste 0 -- -- 85
2020-09-21 09:00:00 12.5 7 Noroeste 14 Noroeste 0 -- -- 92
2020-09-21 08:00:00 11.1 3 Norte 19 Noroeste 0 -- -- 96
2020-09-21 07:00:00 12.2 13 Noroeste 20 Noroeste 0 -- -- 91
2020-09-21 06:00:00 12.2 9 Sudoeste 22 Oeste 0 -- -- 94
2020-09-21 05:00:00 12.4 16 Oeste 24 Noroeste 0 -- -- 93
2020-09-21 04:00:00 12.7 9 Oeste 26 Oeste 0 -- -- 92
2020-09-21 03:00:00 12.9 15 Oeste 23 Oeste 0 -- -- 93
2020-09-21 02:00:00 13 12 Oeste 22 Oeste 0 -- -- 92
2020-09-21 01:00:00 12.8 12 Oeste 21 Oeste 0 -- -- 93
2020-09-21 00:00:00 12.9 14 Oeste 29 Oeste 0 -- -- 89
2020-09-20 23:00:00 13.2 14 Oeste 27 Oeste 0 -- -- 88
2020-09-20 22:00:00 12.4 10 Noroeste 22 Noroeste 0 -- -- 93
2020-09-20 21:00:00 13.3 15 Noroeste 38 Noroeste 0 -- -- 88
2020-09-20 20:00:00 15.5 6 Noroeste 13 Noroeste 0 -- -- 75
2020-09-20 19:00:00 17.2 10 Oeste 27 Oeste 0 -- -- 64
2020-09-20 18:00:00 19.3 15 Oeste 32 Noroeste 0 -- -- 57
2020-09-20 17:00:00 19.6 13 Noroeste 35 Oeste 0 -- -- 58
2020-09-20 16:00:00 20.1 12 Oeste 33 Oeste 0 -- -- 56
2020-09-20 15:00:00 19.1 19 Oeste 33 Oeste 0 -- -- 58
2020-09-20 14:00:00 17.8 12 Oeste 33 Oeste 0 -- -- 67
2020-09-20 13:00:00 17.6 12 Oeste 30 Oeste 0 -- -- 67
2020-09-20 12:00:00 16.3 15 Oeste 30 Oeste 0 -- -- 74
2020-09-20 11:00:00 15.4 16 Oeste 27 Oeste 0 -- -- 78
2020-09-20 10:00:00 13.4 7 Oeste 24 Oeste 0 -- -- 88
2020-09-20 09:00:00 12.6 14 Oeste 28 Oeste 0 -- -- 90
2020-09-20 08:00:00 11.8 12 Oeste 29 Oeste 0 -- -- 93
2020-09-20 07:00:00 11.6 16 Oeste 28 Oeste 0 -- -- 92
2020-09-20 06:00:00 11.7 17 Oeste 35 Oeste 0 -- -- 91
2020-09-20 05:00:00 11.3 22 Oeste 42 Oeste 0 -- -- 92
2020-09-20 04:00:00 11.5 21 Oeste 40 Oeste 0 -- -- 90
2020-09-20 03:00:00 11.7 28 Oeste 42 Oeste 0 -- -- 89
2020-09-20 02:00:00 12 22 Oeste 35 Oeste 0 -- -- 87
2020-09-20 01:00:00 12.2 21 Oeste 37 Oeste 0 -- -- 85
2020-09-20 00:00:00 12.5 23 Oeste 37 Oeste 0 -- -- 82
2020-09-19 23:00:00 12.2 24 Oeste 33 Oeste 0 -- -- 82
2020-09-19 22:00:00 12.3 17 Oeste 37 Oeste 0 -- -- 84
2020-09-19 21:00:00 13.3 14 Oeste 37 Noroeste 0 -- -- 78
2020-09-19 20:00:00 14.5 17 Noroeste 32 Noroeste 0 -- -- 75
2020-09-19 19:00:00 15.6 13 Noroeste 33 Noroeste 0 -- -- 72
2020-09-19 18:00:00 15.8 21 Noroeste 36 Noroeste 0 -- -- 72
2020-09-19 17:00:00 18.9 14 Noroeste 36 Noroeste 0 -- -- 58
2020-09-19 16:00:00 17.8 16 Oeste 46 Sudoeste 0 -- -- 56
2020-09-19 15:00:00 19.8 23 Oeste 50 Sudoeste 0 -- -- 51
2020-09-19 14:00:00 19.5 23 Oeste 45 Oeste 0 -- -- 52
2020-09-19 13:00:00 17.6 13 Oeste 38 Oeste 0 -- -- 64
2020-09-19 12:00:00 15.8 21 Oeste 39 Oeste 0 -- -- 69
2020-09-19 11:00:00 15.2 10 Oeste 39 Sudoeste 0 -- -- 77
2020-09-19 10:00:00 14.8 14 Sudoeste 31 Sudoeste 0 -- -- 81
2020-09-19 09:00:00 11.6 9 Oeste 24 Sudoeste 0 -- -- 87
2020-09-19 08:00:00 11.5 15 Sudoeste 26 Sudoeste 0 -- -- 89
2020-09-19 07:00:00 11.3 12 Sudoeste 26 Sur 0 -- -- 95
2020-09-19 06:00:00 11.7 5 Sudeste 15 Sur 0 -- -- 93
2020-09-19 05:00:00 12.7 10 Sur 30 Sudoeste 0 -- -- 90
2020-09-19 04:00:00 12.7 13 Sur 28 Sur 0 -- -- 88
2020-09-19 03:00:00 12.3 10 Sur 20 Sur 0 -- -- 88
2020-09-19 02:00:00 11.2 6 Sudeste 15 Sudeste 0 -- -- 91
2020-09-19 01:00:00 11.5 6 Sudoeste 19 Sudoeste 0 -- -- 86
2020-09-19 00:00:00 11.2 9 Oeste 20 Oeste 0 -- -- 89
2020-09-18 23:00:00 11.8 13 Sudoeste 21 Oeste 0 -- -- 86
2020-09-18 22:00:00 11.5 8 Sudoeste 42 Sudoeste 4 -- -- 93
2020-09-18 21:00:00 14.3 12 Oeste 20 Oeste 1.4 -- -- 92
2020-09-18 20:00:00 14.8 5 Sudoeste 15 Sudoeste 0 -- -- 88
2020-09-18 19:00:00 14.4 5 Sur 13 Oeste 0.6 -- -- 90
2020-09-18 18:00:00 13.2 9 Oeste 18 Oeste 0.8 -- -- 90
2020-09-18 17:00:00 15.3 10 Oeste 26 Noroeste 0 -- -- 75
2020-09-18 16:00:00 14.6 20 Noroeste 39 Sudoeste 0.4 -- -- 80
2020-09-18 15:00:00 18.6 21 Sudoeste 45 Sudoeste 0 -- -- 68
2020-09-18 14:00:00 18.8 21 Sudoeste 41 Sur 0 -- -- 68
2020-09-18 13:00:00 18.6 22 Sudoeste 42 Oeste 0 -- -- 65
2020-09-18 12:00:00 16.5 19 Sudoeste 41 Sudoeste 0 -- -- 70
2020-09-18 11:00:00 16 18 Sur 32 Sudoeste 0 -- -- 68
2020-09-18 10:00:00 14.5 12 Sur 46 Sudoeste 0.2 -- -- 77
2020-09-18 09:00:00 14.9 28 Sur 47 Sudoeste 0.2 -- -- 83
2020-09-18 08:00:00 15.9 29 Sudoeste 49 Sur 0 -- -- 81
2020-09-18 07:00:00 15.6 19 Sur 38 Sudoeste 0 -- -- 82
2020-09-18 06:00:00 15.5 18 Sur 35 Sudoeste 0 -- -- 80
2020-09-18 05:00:00 15.4 16 Sudoeste 31 Sudoeste 0 -- -- 78
2020-09-18 04:00:00 15.9 11 Sur 29 Sudoeste 0 -- -- 77
2020-09-18 03:00:00 16.1 19 Sudoeste 30 Sudoeste 0 -- -- 80
2020-09-18 02:00:00 15.4 19 Sudoeste 32 Sudoeste 0 -- -- 84
2020-09-18 01:00:00 15.4 16 Sudoeste 28 Sudoeste 0.4 -- -- 87
2020-09-18 00:00:00 17.8 16 Sudoeste 24 Sur 0 -- -- 70
2020-09-17 23:00:00 17.7 14 Sudoeste 26 Sudoeste 0 -- -- 67
2020-09-17 22:00:00 17.9 11 Sur 24 Sudoeste 0 -- -- 65
2020-09-17 21:00:00 18.3 11 Sudoeste 17 Sudoeste 0 -- -- 64
2020-09-17 20:00:00 19.7 5 Sur 27 Sudoeste 0 -- -- 59
2020-09-17 19:00:00 21.4 9 Sudoeste 32 Sudoeste 0 -- -- 53
2020-09-17 18:00:00 22.1 17 Sudoeste 33 Oeste 0 -- -- 50
2020-09-17 17:00:00 22 16 Sudoeste 42 Sudoeste 0 -- -- 49
2020-09-17 16:00:00 22.4 21 Sudoeste 43 Sudoeste 0 -- -- 46
2020-09-17 15:00:00 22.7 22 Sudoeste 40 Sudoeste 0 -- -- 45
2020-09-17 14:00:00 22.5 17 Sur 38 Sur 0 -- -- 41
2020-09-17 13:00:00 22.9 18 Sudoeste 35 Sudoeste 0 -- -- 46
2020-09-17 12:00:00 22.1 19 Sudoeste 38 Sudoeste 0 -- -- 51
2020-09-17 11:00:00 20.7 16 Sur 26 Sudoeste 0 -- -- 48
2020-09-17 10:00:00 18.8 16 Sudoeste 27 Sudoeste 0 -- -- 44
2020-09-17 09:00:00 17.8 16 Sudoeste 36 Sudoeste 0 -- -- 52
2020-09-17 08:00:00 17.3 24 Sudoeste 35 Sudoeste 0 -- -- 55
2020-09-17 07:00:00 16.7 19 Sudoeste 35 Sudoeste 0 -- -- 59
2020-09-17 06:00:00 18.3 15 Sudoeste 24 Sudoeste 0 -- -- 52
2020-09-17 05:00:00 18.6 20 Sudoeste 28 Sudoeste 0 -- -- 54
2020-09-17 04:00:00 17.8 19 Sudoeste 27 Sudoeste 0 -- -- 59
2020-09-17 03:00:00 17.9 22 Sudoeste 27 Sudoeste 0 -- -- 59
2020-09-17 02:00:00 17.6 22 Sudoeste 29 Sudoeste 0 -- -- 59
2020-09-17 01:00:00 17.4 23 Sudoeste 27 Sudoeste 0 -- -- 61
2020-09-17 00:00:00 19.1 19 Sudoeste 27 Sudoeste 0 -- -- 58
2020-09-16 23:00:00 18.7 15 Sudoeste 24 Sur 0 -- -- 61
2020-09-16 22:00:00 19.5 9 Sur 14 Sur 0 -- -- 59
2020-09-16 21:00:00 19.8 8 Sur 15 Sur 0 -- -- 55
2020-09-16 20:00:00 21.4 8 Sur 17 Sudeste 0 -- -- 50
2020-09-16 19:00:00 22.5 12 Sur 26 Sudeste 0 -- -- 48
2020-09-16 18:00:00 23.1 17 Sudeste 29 Sudeste 0 -- -- 47
2020-09-16 17:00:00 24.9 15 Sudeste 26 Sudeste 0 -- -- 43
2020-09-16 16:00:00 23.8 13 Este 25 Sudeste 0 -- -- 46
2020-09-16 15:00:00 25 13 Este 23 Nordeste 0 -- -- 43
2020-09-16 14:00:00 25.5 11 Sudeste 26 Sudeste 0 -- -- 44
2020-09-16 13:00:00 25 11 Sudeste 23 Sudeste 0 -- -- 43
2020-09-16 12:00:00 23.8 6 Este 12 Este 0 -- -- 44
2020-09-16 11:00:00 24.3 5 Este 12 Sudeste 0 -- -- 46
2020-09-16 10:00:00 22.6 3 Oeste 5 Oeste 0 -- -- 49
2020-09-16 09:00:00 17.8 0 Calma 6 Sudoeste 0 -- -- 66
2020-09-16 08:00:00 16 0 Calma 8 Oeste 0 -- -- 69
2020-09-16 07:00:00 15.9 2 Noroeste 12 Oeste 0 -- -- 70
2020-09-16 06:00:00 15.1 6 Oeste 25 Oeste 0 -- -- 77
2020-09-16 05:00:00 15.3 17 Oeste 22 Oeste 0 -- -- 76
2020-09-16 04:00:00 15.2 21 Oeste 22 Oeste 0 -- -- 78
2020-09-16 03:00:00 15.8 19 Sudoeste 26 Sudoeste 0 -- -- 78
2020-09-16 02:00:00 16.4 23 Sudoeste 27 Sudoeste 0 -- -- 77
2020-09-16 01:00:00 16.5 22 Sudoeste 27 Sudoeste 0 -- -- 76
2020-09-16 00:00:00 17.3 20 Sudoeste 26 Sudoeste 0 -- -- 73
2020-09-15 23:00:00 18.4 17 Sudoeste 23 Sudoeste 0 -- -- 67
2020-09-15 22:00:00 17.6 5 Sudoeste 14 Sur 0 -- -- 67
2020-09-15 21:00:00 17.8 8 Sur 9 Sur 0 -- -- 66
2020-09-15 20:00:00 19.6 5 Sudeste 22 Este 0 -- -- 60
2020-09-15 19:00:00 22.1 13 Este 22 Este 0 -- -- 51
2020-09-15 18:00:00 24.9 15 Sudoeste 26 Sudoeste 0 -- -- 41
2020-09-15 17:00:00 23 19 Sudoeste 34 Sudoeste 0 -- -- 47
2020-09-15 16:00:00 25.8 8 Sudoeste 23 Oeste 0 -- -- 43
2020-09-15 15:00:00 25 5 Sur 21 Oeste 0 -- -- 47
2020-09-15 14:00:00 24.5 11 Oeste 21 Sudoeste 0 -- -- 42
2020-09-15 13:00:00 23.7 5 Norte 12 Noroeste 0 -- -- 47
2020-09-15 12:00:00 20.4 6 Norte 21 Oeste 0 -- -- 63
2020-09-15 11:00:00 17.5 16 Oeste 30 Sudoeste 0 -- -- 74
2020-09-15 10:00:00 17 20 Sudoeste 30 Sudoeste 0 -- -- 74
2020-09-15 09:00:00 15.5 23 Sudoeste 28 Sudoeste 0 -- -- 80
2020-09-15 08:00:00 15.4 22 Sudoeste 28 Sudoeste 0 -- -- 78
2020-09-15 07:00:00 14.4 21 Sudoeste 25 Sudoeste 0 -- -- 78
2020-09-15 06:00:00 14.2 18 Sudoeste 26 Sudoeste 0 -- -- 81
2020-09-15 05:00:00 14.1 25 Sudoeste 29 Sudoeste 0 -- -- 81
2020-09-15 04:00:00 14.8 2 Oeste 23 Sudoeste 0.4 -- -- 80
2020-09-15 03:00:00 14.4 13 Sudoeste 33 Oeste 0.6 -- -- 85
2020-09-15 02:00:00 16 20 Oeste 47 Oeste 0 -- -- 76
2020-09-15 01:00:00 18.5 20 Sudoeste 35 Sudoeste 0 -- -- 60
2020-09-15 00:00:00 18.7 14 Sudoeste 26 Sudoeste 0 -- -- 62
2020-09-14 23:00:00 19 17 Sur 31 Sur 0 -- -- 59
2020-09-14 22:00:00 20.2 15 Sudoeste 31 Sudoeste 0 -- -- 53
2020-09-14 21:00:00 21.3 9 Sudoeste 14 Sur 0 -- -- 46
2020-09-14 20:00:00 22.3 6 Sudoeste 12 Sur 0 -- -- 44
2020-09-14 19:00:00 24.3 8 Sudeste 16 Sudeste 0 -- -- 40
2020-09-14 18:00:00 26.4 10 Sudeste 22 Sudoeste 0 -- -- 33
2020-09-14 17:00:00 25.7 13 Sur 26 Sudoeste 0 -- -- 35
2020-09-14 16:00:00 26 13 Sudoeste 26 Sudoeste 0 -- -- 33
2020-09-14 15:00:00 25.8 11 Sudoeste 31 Sudoeste 0 -- -- 33
2020-09-14 14:00:00 26.8 12 Sudoeste 31 Sudoeste 0 -- -- 32
2020-09-14 13:00:00 25.3 13 Sur 29 Sur 0 -- -- 34
2020-09-14 12:00:00 24.2 18 Sur 29 Sudoeste 0 -- -- 37
2020-09-14 11:00:00 22.3 21 Sudoeste 33 Sudoeste 0 -- -- 41
2020-09-14 10:00:00 20.1 25 Sudoeste 33 Sudoeste 0 -- -- 54
2020-09-14 09:00:00 17.7 24 Sudoeste 31 Sudoeste 0 -- -- 62
2020-09-14 08:00:00 15 27 Sudoeste 31 Sudoeste 0 -- -- 66
2020-09-14 07:00:00 15.2 27 Sudoeste 35 Sudoeste 0 -- -- 65
2020-09-14 06:00:00 15.2 28 Sudoeste 35 Sudoeste 0 -- -- 64
2020-09-14 05:00:00 15.1 30 Sudoeste 33 Sudoeste 0 -- -- 64
2020-09-14 04:00:00 15.7 26 Sudoeste 30 Sudoeste 0 -- -- 61
2020-09-14 03:00:00 16.1 26 Sudoeste 31 Sudoeste 0 -- -- 59
2020-09-14 02:00:00 15.9 26 Sudoeste 30 Sudoeste 0 -- -- 61
2020-09-14 01:00:00 15.9 11 Sudoeste 26 Sudoeste 0 -- -- 61
2020-09-14 00:00:00 16.7 22 Sudoeste 32 Sudoeste 0 -- -- 60
2020-09-13 23:00:00 18.9 24 Sudoeste 31 Sudoeste 0 -- -- 53
2020-09-13 22:00:00 19.4 17 Sur 27 Sur 0 -- -- 53
2020-09-13 21:00:00 20.3 10 Sur 18 Sur 0 -- -- 48
2020-09-13 20:00:00 22.5 12 Sudeste 30 Sudeste 0 -- -- 41
2020-09-13 19:00:00 24.7 17 Este 29 Sudeste 0 -- -- 36
2020-09-13 18:00:00 26.1 14 Este 27 Sudeste 0 -- -- 32
2020-09-13 17:00:00 27.7 7 Sur 31 Sudeste 0 -- -- 24
2020-09-13 16:00:00 26.7 13 Nordeste 33 Nordeste 0 -- -- 28
2020-09-13 15:00:00 26.3 14 Nordeste 26 Este 0 -- -- 33
2020-09-13 14:00:00 27 8 Este 20 Nordeste 0 -- -- 29
2020-09-13 13:00:00 26.4 6 Sudeste 16 Sudoeste 0 -- -- 30
2020-09-13 12:00:00 25.3 10 Sur 28 Sudoeste 0 -- -- 34
2020-09-13 11:00:00 22.8 22 Sudoeste 29 Sudoeste 0 -- -- 42
2020-09-13 10:00:00 20.4 26 Sudoeste 32 Sudoeste 0 -- -- 49
2020-09-13 09:00:00 17.8 27 Sudoeste 31 Sudoeste 0 -- -- 58
2020-09-13 08:00:00 14.9 25 Sudoeste 29 Sudoeste 0 -- -- 66
2020-09-13 07:00:00 15.7 25 Sudoeste 30 Sudoeste 0 -- -- 63
2020-09-13 06:00:00 14.4 24 Sudoeste 27 Sudoeste 0 -- -- 67
2020-09-13 05:00:00 15 17 Sudoeste 28 Sudoeste 0 -- -- 64
2020-09-13 04:00:00 15.1 17 Sudoeste 25 Sudoeste 0 -- -- 66
2020-09-13 03:00:00 15.2 20 Sudoeste 26 Sudoeste 0 -- -- 69
2020-09-13 02:00:00 15.7 19 Sudoeste 22 Sudoeste 0 -- -- 68
2020-09-13 01:00:00 16.9 3 Noroeste 8 Sur 0 -- -- 61
2020-09-13 00:00:00 17.3 2 Sur 12 Sur 0 -- -- 58
2020-09-12 23:00:00 18.1 8 Sur 12 Sur 0 -- -- 55
2020-09-12 22:00:00 18 6 Sur 10 Sudeste 0 -- -- 56
2020-09-12 21:00:00 18.8 5 Sur 15 Este 0 -- -- 57
2020-09-12 20:00:00 21.3 12 Este 21 Este 0 -- -- 51
2020-09-12 19:00:00 22.7 13 Este 24 Nordeste 0 -- -- 48
2020-09-12 18:00:00 23.7 14 Este 30 Nordeste 0 -- -- 46
2020-09-12 17:00:00 24.5 12 Este 25 Nordeste 0 -- -- 43
2020-09-12 16:00:00 24.1 12 Nordeste 23 Nordeste 0 -- -- 44
2020-09-12 15:00:00 24.2 13 Nordeste 22 Sudeste 0 -- -- 45
2020-09-12 14:00:00 23.1 12 Este 22 Este 0 -- -- 46
2020-09-12 13:00:00 23.2 8 Nordeste 15 Nordeste 0 -- -- 47
2020-09-12 12:00:00 22.3 5 Sudeste 15 Este 0 -- -- 50
2020-09-12 11:00:00 21.1 6 Este 12 Este 0 -- -- 52
2020-09-12 10:00:00 19.5 2 Este 4 Este 0 -- -- 58
2020-09-12 09:00:00 16.8 0 Calma 7 Sur 0 -- -- 73
2020-09-12 08:00:00 13.2 6 Sur 9 Sur 0 -- -- 77
2020-09-12 07:00:00 13.5 7 Sur 11 Sur 0 -- -- 74
2020-09-12 06:00:00 13.9 7 Sur 12 Sur 0 -- -- 66
2020-09-12 05:00:00 14.4 6 Sudoeste 10 Sudoeste 0 -- -- 65
2020-09-12 04:00:00 14.9 4 Sur 10 Sudoeste 0 -- -- 64
2020-09-12 03:00:00 14.6 3 Oeste 8 Sudoeste 0 -- -- 66
2020-09-12 02:00:00 14.7 7 Sur 14 Sudoeste 0 -- -- 62
2020-09-12 01:00:00 15.5 0 Calma 3 Oeste 0 -- -- 59
2020-09-12 00:00:00 16.6 0 Calma 6 Sur 0 -- -- 56
2020-09-11 23:00:00 17.1 5 Sudeste 13 Sur 0 -- -- 54
2020-09-11 22:00:00 17.1 9 Sur 13 Sur 0 -- -- 53
2020-09-11 21:00:00 18.4 6 Sudeste 12 Sudeste 0 -- -- 47
2020-09-11 20:00:00 20.7 8 Este 17 Este 0 -- -- 42
2020-09-11 19:00:00 22.6 11 Nordeste 21 Nordeste 0 -- -- 38
2020-09-11 18:00:00 23.7 14 Nordeste 23 Este 0 -- -- 37
2020-09-11 17:00:00 24.8 9 Norte 20 Norte 0 -- -- 33
2020-09-11 16:00:00 25.1 9 Norte 26 Noroeste 0 -- -- 30
2020-09-11 15:00:00 24.5 8 Noroeste 21 Norte 0 -- -- 31
2020-09-11 14:00:00 23.4 12 Norte 23 Norte 0 -- -- 30
2020-09-11 13:00:00 22.8 15 Norte 23 Norte 0 -- -- 37
2020-09-11 12:00:00 22.3 14 Oeste 25 Oeste 0 -- -- 39
2020-09-11 11:00:00 20.3 4 Nordeste 11 Nordeste 0 -- -- 43
2020-09-11 10:00:00 18.2 3 Nordeste 7 Nordeste 0 -- -- 53
2020-09-11 09:00:00 15.9 4 Norte 7 Nordeste 0 -- -- 60
2020-09-11 08:00:00 12.9 3 Oeste 13 Oeste 0 -- -- 63
2020-09-11 07:00:00 11.8 7 Oeste 11 Oeste 0 -- -- 67
2020-09-11 06:00:00 12.1 0 Calma 6 Noroeste 0 -- -- 65
2020-09-11 05:00:00 12.8 2 Noroeste 6 Noroeste 0 -- -- 61
2020-09-11 04:00:00 13 3 Norte 19 Noroeste 0 -- -- 61
2020-09-11 03:00:00 13.8 9 Noroeste 16 Noroeste 0 -- -- 56
2020-09-11 02:00:00 14.1 8 Noroeste 23 Norte 0 -- -- 56
2020-09-11 01:00:00 14.4 8 Noroeste 27 Norte 0 -- -- 55
2020-09-11 00:00:00 15.2 10 Oeste 17 Oeste 0 -- -- 56
2020-09-10 23:00:00 15 6 Noroeste 18 Norte 0 -- -- 55
2020-09-10 22:00:00 16.5 8 Norte 25 Nordeste 0 -- -- 50
2020-09-10 21:00:00 18 15 Norte 25 Norte 0 -- -- 44
2020-09-10 20:00:00 19.8 14 Norte 24 Norte 0 -- -- 44
2020-09-10 19:00:00 21.5 12 Nordeste 25 Norte 0 -- -- 42
2020-09-10 18:00:00 22 14 Norte 28 Norte 0 -- -- 41
2020-09-10 17:00:00 22.6 15 Norte 36 Norte 0 -- -- 40
2020-09-10 16:00:00 22.2 12 Nordeste 25 Norte 0 -- -- 42
2020-09-10 15:00:00 22.3 12 Norte 26 Nordeste 0 -- -- 43
2020-09-10 14:00:00 22 12 Norte 23 Norte 0 -- -- 48
2020-09-10 13:00:00 21.1 11 Norte 19 Norte 0 -- -- 49
2020-09-10 12:00:00 18.9 13 Noroeste 22 Norte 0 -- -- 56
2020-09-10 11:00:00 17.3 14 Noroeste 24 Noroeste 0 -- -- 61
2020-09-10 10:00:00 16.4 15 Norte 21 Norte 0 -- -- 63
2020-09-10 09:00:00 11.9 3 Norte 18 Noroeste 0 -- -- 77
2020-09-10 08:00:00 10.4 3 Norte 14 Noroeste 0 -- -- 83
2020-09-10 07:00:00 10.9 7 Noroeste 17 Noroeste 0 -- -- 83
2020-09-10 06:00:00 11.1 6 Norte 19 Noroeste 0 -- -- 87
2020-09-10 05:00:00 11.3 10 Noroeste 16 Noroeste 0 -- -- 88
2020-09-10 04:00:00 12.3 10 Noroeste 17 Noroeste 0 -- -- 84
2020-09-10 03:00:00 12.5 9 Noroeste 12 Noroeste 0 -- -- 81
2020-09-10 02:00:00 13.8 3 Nordeste 10 Oeste 0 -- -- 75
2020-09-10 01:00:00 14.1 2 Sur 11 Sudeste 0 -- -- 75
2020-09-10 00:00:00 15.1 6 Sur 15 Sur 0 -- -- 70
2020-09-09 23:00:00 15.9 5 Sur 12 Sur 0 -- -- 63
2020-09-09 22:00:00 16.4 0 Calma 5 Noroeste 0 -- -- 52
2020-09-09 21:00:00 16.7 3 Noroeste 12 Nordeste 0 -- -- 50
2020-09-09 20:00:00 18.7 7 Nordeste 17 Norte 0 -- -- 46
2020-09-09 19:00:00 20 11 Nordeste 18 Nordeste 0 -- -- 42
2020-09-09 18:00:00 19.9 10 Nordeste 22 Norte 0 -- -- 45
2020-09-09 17:00:00 21.3 6 Nordeste 20 Norte 0 -- -- 45
2020-09-09 16:00:00 20.7 8 Norte 20 Norte 0 -- -- 47
2020-09-09 15:00:00 19.3 4 Sudeste 13 Nordeste 0 -- -- 53
2020-09-09 14:00:00 18.9 5 Norte 12 Este 0 -- -- 56
2020-09-09 13:00:00 16.9 4 Este 15 Este 0 -- -- 64
2020-09-09 12:00:00 16.7 9 Este 15 Este 0 -- -- 65
2020-09-09 11:00:00 16.3 2 Sudeste 15 Sudeste 0 -- -- 65
2020-09-09 10:00:00 15.3 4 Este 7 Nordeste 0 -- -- 67
2020-09-09 09:00:00 14 2 Noroeste 8 Noroeste 0 -- -- 72
2020-09-09 08:00:00 11.5 4 Noroeste 7 Noroeste 0 -- -- 78
2020-09-09 07:00:00 11.9 0 Calma 6 Noroeste 0 -- -- 74
2020-09-09 06:00:00 11.9 0 Calma 5 Sudoeste 0 -- -- 73
2020-09-09 05:00:00 11.5 5 Sur 8 Sur 0 -- -- 74
2020-09-09 04:00:00 11.7 4 Sur 11 Sur 0 -- -- 66
2020-09-09 03:00:00 13.3 5 Sur 11 Sudeste 0 -- -- 61
2020-09-09 02:00:00 14.1 6 Sur 14 Sudeste 0 -- -- 58
2020-09-09 01:00:00 14.3 10 Sudeste 13 Sudeste 0 -- -- 56
2020-09-09 00:00:00 13.6 8 Sur 11 Sur 0 -- -- 57
2020-09-08 23:00:00 14.8 6 Sur 12 Sur 0 -- -- 54
2020-09-08 22:00:00 14.9 6 Sur 11 Sudeste 0 -- -- 53
2020-09-08 21:00:00 15.2 6 Sur 17 Este 0 -- -- 51
2020-09-08 20:00:00 16.6 13 Este 23 Nordeste 0 -- -- 46
2020-09-08 19:00:00 17.9 14 Este 29 Sudeste 0 -- -- 43
2020-09-08 18:00:00 18.5 15 Sudeste 27 Este 0 -- -- 43
2020-09-08 17:00:00 19.3 14 Sudeste 30 Este 0 -- -- 39
2020-09-08 16:00:00 19.1 15 Sudeste 32 Sudeste 0 -- -- 39
2020-09-08 15:00:00 18.7 13 Este 34 Sudeste 0 -- -- 42
2020-09-08 14:00:00 18.2 13 Sudeste 27 Sudeste 0 -- -- 45
2020-09-08 13:00:00 17.6 12 Este 23 Este 0 -- -- 46
2020-09-08 12:00:00 17.5 6 Sudeste 15 Sudeste 0 -- -- 45
2020-09-08 11:00:00 15.4 5 Este 8 Nordeste 0 -- -- 59
2020-09-08 10:00:00 12.7 4 Noroeste 11 Norte 0 -- -- 70
2020-09-08 09:00:00 9.8 7 Norte 12 Norte 0 -- -- 82
2020-09-08 08:00:00 6.5 5 Noroeste 9 Noroeste 0 -- -- 91
2020-09-08 07:00:00 5.9 2 Norte 12 Noroeste 0 -- -- 93
2020-09-08 06:00:00 6.4 9 Noroeste 12 Noroeste 0 -- -- 90
2020-09-08 05:00:00 6.7 6 Noroeste 13 Noroeste 0 -- -- 88
2020-09-08 04:00:00 7 10 Noroeste 18 Noroeste 0 -- -- 87
2020-09-08 03:00:00 7.6 11 Noroeste 20 Noroeste 0 -- -- 85
2020-09-08 02:00:00 7.8 14 Noroeste 22 Noroeste 0 -- -- 84
2020-09-08 01:00:00 8.2 14 Noroeste 24 Norte 0 -- -- 79
2020-09-08 00:00:00 8.8 11 Noroeste 23 Norte 0 -- -- 75
2020-09-07 23:00:00 9.6 16 Noroeste 33 Norte 0 -- -- 71
2020-09-07 22:00:00 10.6 18 Norte 30 Norte 0 -- -- 65
2020-09-07 21:00:00 11.6 25 Norte 46 Norte 0 -- -- 58
2020-09-07 20:00:00 13.3 25 Norte 36 Norte 0 -- -- 51
2020-09-07 19:00:00 15 21 Norte 37 Norte 0 -- -- 46
2020-09-07 18:00:00 16 23 Norte 37 Norte 0 -- -- 44
2020-09-07 17:00:00 16.6 21 Norte 37 Norte 0 -- -- 44
2020-09-07 16:00:00 16.6 24 Norte 39 Norte 0 -- -- 47
2020-09-07 15:00:00 16.6 22 Norte 40 Norte 0 -- -- 48
2020-09-07 14:00:00 15.3 26 Norte 43 Norte 0 -- -- 52
2020-09-07 13:00:00 14.3 33 Norte 46 Norte 0 -- -- 54
2020-09-07 12:00:00 13.9 26 Norte 51 Norte 0 -- -- 59
2020-09-07 11:00:00 12.7 33 Norte 58 Norte 0 -- -- 61
2020-09-07 10:00:00 11.2 36 Norte 48 Norte 0 -- -- 68
2020-09-07 09:00:00 9.7 26 Norte 43 Noroeste 0 -- -- 74
2020-09-07 08:00:00 8 26 Norte 39 Noroeste 0 -- -- 82
2020-09-07 07:00:00 7.7 23 Noroeste 46 Norte 0 -- -- 83
2020-09-07 06:00:00 7.8 25 Noroeste 35 Norte 0 -- -- 86
2020-09-07 05:00:00 7.9 15 Norte 26 Norte 0 -- -- 87
2020-09-07 04:00:00 8.1 12 Norte 28 Norte 0 -- -- 88
2020-09-07 03:00:00 8.4 14 Norte 24 Norte 0 -- -- 85
2020-09-07 02:00:00 8.9 9 Norte 23 Norte 0 -- -- 86
2020-09-07 01:00:00 9.3 12 Norte 21 Norte 0 -- -- 86
2020-09-07 00:00:00 10.6 14 Norte 21 Norte 0 -- -- 81
2020-09-06 23:00:00 11.5 11 Norte 21 Norte 0 -- -- 76
2020-09-06 22:00:00 12.5 16 Norte 30 Norte 0 -- -- 71
2020-09-06 21:00:00 14.1 11 Nordeste 24 Nordeste 0 -- -- 67
2020-09-06 20:00:00 14.8 15 Norte 23 Norte 0 -- -- 64
2020-09-06 19:00:00 16.9 12 Nordeste 24 Nordeste 0 -- -- 63
2020-09-06 18:00:00 18.7 17 Nordeste 27 Nordeste 0 -- -- 59
2020-09-06 17:00:00 19.9 15 Nordeste 24 Este 0 -- -- 56
2020-09-06 16:00:00 21.1 14 Este 22 Nordeste 0 -- -- 55
2020-09-06 15:00:00 20.3 13 Nordeste 26 Norte 0 -- -- 61
2020-09-06 14:00:00 20.7 10 Este 18 Nordeste 0 -- -- 60
2020-09-06 13:00:00 21 8 Sudeste 15 Nordeste 0 -- -- 59
2020-09-06 12:00:00 21 5 Este 12 Sudeste 0 -- -- 61
2020-09-06 11:00:00 17.6 9 Sudeste 13 Sudeste 0 -- -- 73
2020-09-06 10:00:00 15.5 3 Este 6 Nordeste 0 -- -- 81
2020-09-06 09:00:00 13.5 0 Calma 6 Sudeste 0 -- -- 91
2020-09-06 08:00:00 10.8 4 Sur 8 Sudeste 0 -- -- 97
2020-09-06 07:00:00 10.6 3 Sudeste 9 Sur 0 -- -- 96
2020-09-06 06:00:00 10.7 6 Sudeste 13 Sur 0 -- -- 94
2020-09-06 05:00:00 12 3 Este 10 Sur 0 -- -- 89
2020-09-06 04:00:00 12.8 3 Sudeste 7 Sur 0 -- -- 87
2020-09-06 03:00:00 12.7 3 Sur 5 Sudoeste 0 -- -- 88
2020-09-06 02:00:00 13 0 Calma 5 Norte 0 -- -- 87
2020-09-06 01:00:00 13.2 4 Oeste 7 Sudoeste 0 -- -- 87
2020-09-06 00:00:00 13.7 4 Oeste 14 Noroeste 0 -- -- 85
2020-09-05 23:00:00 14.6 8 Noroeste 12 Noroeste 0 -- -- 83
2020-09-05 22:00:00 17 10 Nordeste 21 Nordeste 0 -- -- 73
2020-09-05 21:00:00 19 10 Nordeste 20 Nordeste 0 -- -- 66
2020-09-05 20:00:00 21.6 12 Nordeste 26 Nordeste 0 -- -- 51
2020-09-05 19:00:00 23.5 12 Nordeste 24 Este 0 -- -- 47
2020-09-05 18:00:00 24.1 14 Este 23 Este 0 -- -- 45
2020-09-05 17:00:00 24.6 12 Este 24 Nordeste 0 -- -- 44
2020-09-05 16:00:00 24.7 12 Nordeste 26 Este 0 -- -- 44
2020-09-05 15:00:00 24 17 Este 24 Nordeste 0 -- -- 48
2020-09-05 14:00:00 24.2 13 Este 23 Este 0 -- -- 44
2020-09-05 13:00:00 24.1 10 Este 22 Este 0 -- -- 44
2020-09-05 12:00:00 23.6 9 Nordeste 17 Nordeste 0 -- -- 47
2020-09-05 11:00:00 23.5 5 Este 12 Este 0 -- -- 47
2020-09-05 10:00:00 22 2 Este 5 Nordeste 0 -- -- 49
2020-09-05 09:00:00 20.1 0 Calma 3 Sur 0 -- -- 50
2020-09-05 08:00:00 15.9 2 Noroeste 6 Oeste 0 -- -- 58
2020-09-05 07:00:00 15.8 3 Oeste 6 Oeste 0 -- -- 57
2020-09-05 06:00:00 16.5 0 Calma 5 Oeste 0 -- -- 55
2020-09-05 05:00:00 16.3 3 Noroeste 8 Noroeste 0 -- -- 54
2020-09-05 04:00:00 16.4 5 Oeste 15 Oeste 0 -- -- 55
2020-09-05 03:00:00 16.2 9 Oeste 29 Sudoeste 0 -- -- 65
2020-09-05 02:00:00 16.5 24 Sudoeste 31 Sudoeste 0 -- -- 68
2020-09-05 01:00:00 16.8 25 Sudoeste 30 Sudoeste 0 -- -- 67
2020-09-05 00:00:00 17.7 15 Sudoeste 23 Sudoeste 0 -- -- 65
2020-09-04 23:00:00 18.4 7 Sur 14 Sur 0 -- -- 69
2020-09-04 22:00:00 18.9 9 Sur 15 Sur 0 -- -- 60
2020-09-04 21:00:00 20 8 Sur 17 Sudeste 0 -- -- 47
2020-09-04 20:00:00 22.9 13 Sudeste 27 Sudeste 0 -- -- 41
2020-09-04 19:00:00 24.7 15 Sudeste 27 Este 0 -- -- 39
2020-09-04 18:00:00 25.7 12 Este 25 Sudeste 0 -- -- 44
2020-09-04 17:00:00 26.1 10 Sudeste 31 Este 0 -- -- 40
2020-09-04 16:00:00 26.3 11 Este 28 Este 0 -- -- 40
2020-09-04 15:00:00 26.4 8 Sudeste 24 Sudeste 0 -- -- 36
2020-09-04 14:00:00 25.8 12 Sudeste 27 Este 0 -- -- 37
2020-09-04 13:00:00 25.5 4 Noroeste 18 Este 0 -- -- 42
2020-09-04 12:00:00 24 7 Norte 13 Norte 0 -- -- 45
2020-09-04 11:00:00 22.7 5 Sudeste 19 Este 0 -- -- 49
2020-09-04 10:00:00 21.2 5 Sudeste 8 Sudeste 0 -- -- 58
2020-09-04 09:00:00 18 6 Sudeste 8 Sudeste 0 -- -- 67
2020-09-04 08:00:00 14.3 3 Nordeste 26 Sudoeste 0 -- -- 77
2020-09-04 07:00:00 13.9 12 Sudoeste 23 Sudoeste 0 -- -- 80
2020-09-04 06:00:00 14.3 19 Sudoeste 23 Sudoeste 0 -- -- 80
2020-09-04 05:00:00 14.4 12 Sudoeste 18 Sudoeste 0 -- -- 80
2020-09-04 04:00:00 14.8 13 Sudoeste 28 Sudoeste 0 -- -- 81
2020-09-04 03:00:00 15.2 23 Sudoeste 27 Sudoeste 0 -- -- 78
2020-09-04 02:00:00 16.2 2 Noroeste 24 Sudoeste 0 -- -- 74
2020-09-04 01:00:00 16.1 21 Sudoeste 27 Sudoeste 0 -- -- 71
2020-09-04 00:00:00 16 4 Sudoeste 14 Sur 0 -- -- 49
2020-09-03 23:00:00 17.4 8 Sur 14 Sudeste 0 -- -- 44
2020-09-03 22:00:00 17.6 9 Sur 13 Sur 0 -- -- 47
2020-09-03 21:00:00 18.7 5 Sudeste 15 Este 0 -- -- 47
2020-09-03 20:00:00 21.5 10 Este 23 Nordeste 0 -- -- 42
2020-09-03 19:00:00 23.1 13 Nordeste 24 Nordeste 0 -- -- 39
2020-09-03 18:00:00 24 13 Este 25 Este 0 -- -- 39
2020-09-03 17:00:00 24.8 10 Este 21 Este 0 -- -- 39
2020-09-03 16:00:00 24.4 10 Este 24 Nordeste 0 -- -- 40
2020-09-03 15:00:00 24.4 9 Nordeste 24 Nordeste 0 -- -- 40
2020-09-03 14:00:00 24.5 5 Sudeste 17 Norte 0 -- -- 33
2020-09-03 13:00:00 23.3 8 Norte 19 Norte 0 -- -- 39
2020-09-03 12:00:00 21.7 10 Norte 19 Norte 0 -- -- 47
2020-09-03 11:00:00 20.8 6 Norte 24 Sudoeste 0 -- -- 55
2020-09-03 10:00:00 19.2 3 Sudeste 9 Oeste 0 -- -- 67
2020-09-03 09:00:00 16.3 2 Este 10 Este 0 -- -- 77
2020-09-03 08:00:00 12.5 5 Sudeste 9 Sudeste 0 -- -- 93
2020-09-03 07:00:00 12.1 0 Calma 14 Sudoeste 0 -- -- 90
2020-09-03 06:00:00 11.7 6 Sudeste 10 Sudeste 0 -- -- 85
2020-09-03 05:00:00 11.7 7 Sudeste 20 Sur 0 -- -- 76
2020-09-03 04:00:00 12.7 11 Sur 19 Sudoeste 0 -- -- 57
2020-09-03 03:00:00 11.3 8 Sur 12 Sur 0 -- -- 62
2020-09-03 02:00:00 10.6 3 Sudeste 8 Oeste 0 -- -- 65
2020-09-03 01:00:00 11.8 4 Oeste 7 Oeste 0 -- -- 61
2020-09-03 00:00:00 12.6 4 Sur 10 Norte 0 -- -- 57
2020-09-02 23:00:00 13.5 3 Oeste 9 Noroeste 0 -- -- 52
2020-09-02 22:00:00 15 2 Sudeste 12 Norte 0 -- -- 46
2020-09-02 21:00:00 15.8 4 Noroeste 17 Nordeste 0 -- -- 45
2020-09-02 20:00:00 17.9 10 Nordeste 21 Nordeste 0 -- -- 41
2020-09-02 19:00:00 20.2 13 Nordeste 22 Norte 0 -- -- 38
2020-09-02 18:00:00 21.5 10 Norte 22 Noroeste 0 -- -- 37
2020-09-02 17:00:00 22.1 9 Noroeste 21 Noroeste 0 -- -- 35
2020-09-02 16:00:00 21.1 12 Norte 28 Norte 0 -- -- 35
2020-09-02 15:00:00 20.2 15 Norte 27 Norte 0 -- -- 39
2020-09-02 14:00:00 19.8 15 Norte 26 Norte 0 -- -- 40
2020-09-02 13:00:00 19.1 12 Norte 23 Norte 0 -- -- 43
2020-09-02 12:00:00 17.5 10 Norte 20 Norte 0 -- -- 49
2020-09-02 11:00:00 15.9 8 Norte 23 Norte 0 -- -- 56
2020-09-02 10:00:00 13.8 14 Norte 24 Noroeste 0 -- -- 61
2020-09-02 09:00:00 12.2 14 Noroeste 24 Norte 0 -- -- 68
2020-09-02 08:00:00 10.1 12 Noroeste 20 Noroeste 0 -- -- 76
2020-09-02 07:00:00 9.5 14 Noroeste 24 Noroeste 0 -- -- 80
2020-09-02 06:00:00 9.1 11 Noroeste 18 Norte 0 -- -- 79
2020-09-02 05:00:00 9.4 9 Noroeste 18 Norte 0 -- -- 76
2020-09-02 04:00:00 9.6 7 Noroeste 21 Norte 0 -- -- 74
2020-09-02 03:00:00 10.4 9 Noroeste 22 Noroeste 0 -- -- 70
2020-09-02 02:00:00 11.2 9 Noroeste 22 Noroeste 0 -- -- 64
2020-09-02 01:00:00 11.1 6 Noroeste 17 Norte 0 -- -- 60
2020-09-02 00:00:00 12.1 11 Norte 24 Norte 0 -- -- 65
2020-09-01 23:00:00 15 13 Nordeste 23 Nordeste 0 -- -- 46
2020-09-01 22:00:00 15.5 9 Norte 18 Norte 0 -- -- 41
2020-09-01 21:00:00 16 9 Nordeste 17 Nordeste 0 -- -- 39
2020-09-01 20:00:00 17.1 10 Nordeste 17 Nordeste 0 -- -- 36
2020-09-01 19:00:00 18.1 10 Nordeste 19 Nordeste 0 -- -- 39
2020-09-01 18:00:00 18.9 11 Nordeste 16 Norte 0 -- -- 39
2020-09-01 17:00:00 18.9 7 Nordeste 18 Nordeste 0 -- -- 39
2020-09-01 16:00:00 18.8 9 Nordeste 15 Nordeste 0 -- -- 40
2020-09-01 15:00:00 17.9 5 Este 14 Noroeste 0 -- -- 42
2020-09-01 14:00:00 18.8 5 Norte 20 Norte 0 -- -- 40
2020-09-01 13:00:00 19 10 Norte 14 Norte 0 -- -- 41
2020-09-01 12:00:00 18 3 Noroeste 22 Noroeste 0 -- -- 51
2020-09-01 11:00:00 16.9 5 Norte 10 Norte 0 -- -- 50
2020-09-01 10:00:00 16.6 3 Sudeste 7 Este 0 -- -- 49
2020-09-01 09:00:00 13 0 Calma 18 Sudoeste 0 -- -- 72
2020-09-01 08:00:00 11.8 13 Sudoeste 19 Sudoeste 0 -- -- 73
2020-09-01 07:00:00 10.4 0 Calma 7 Sudoeste 0 -- -- 80
2020-09-01 06:00:00 10.6 4 Oeste 7 Sudeste 0 -- -- 78
2020-09-01 05:00:00 10.4 4 Sudeste 10 Sudoeste 0 -- -- 77
2020-09-01 04:00:00 10.8 3 Sudoeste 12 Oeste 0 -- -- 63
2020-09-01 03:00:00 11.3 5 Noroeste 17 Sudoeste 0 -- -- 62
2020-09-01 02:00:00 11.7 6 Sur 14 Sur 0 -- -- 56
2020-09-01 01:00:00 11.4 4 Sur 8 Sudeste 0 -- -- 56
2020-09-01 00:00:00 12.3 5 Sur 11 Sur 0 -- -- 53
2020-08-31 23:00:00 13.8 6 Sur 10 Sur 0 -- -- 47
2020-08-31 22:00:00 14.4 5 Sudeste 12 Sur 0 -- -- 46
2020-08-31 21:00:00 15.1 5 Sudeste 15 Sudeste 0 -- -- 44
2020-08-31 20:00:00 17.5 8 Este 17 Nordeste 0 -- -- 36
2020-08-31 19:00:00 20.4 6 Norte 17 Norte 0 -- -- 28
2020-08-31 18:00:00 21.2 9 Noroeste 22 Sudoeste 0 -- -- 28
2020-08-31 17:00:00 20.7 5 Este 20 Noroeste 0 -- -- 27
2020-08-31 16:00:00 21.1 5 Oeste 20 Sudoeste 0 -- -- 28
2020-08-31 15:00:00 20.4 8 Oeste 22 Norte 0 -- -- 31
2020-08-31 14:00:00 18.2 8 Norte 21 Norte 0 -- -- 34
2020-08-31 13:00:00 17.7 8 Noroeste 21 Noroeste 0 -- -- 41
2020-08-31 12:00:00 16.2 8 Oeste 23 Sudoeste 0 -- -- 46
2020-08-31 11:00:00 13.7 9 Oeste 22 Oeste 0 -- -- 57
2020-08-31 10:00:00 11.1 8 Norte 12 Norte 0 -- -- 70
2020-08-31 09:00:00 9.1 5 Nordeste 8 Nordeste 0 -- -- 76
2020-08-31 08:00:00 6.4 6 Noroeste 17 Noroeste 0 -- -- 83
2020-08-31 07:00:00 5.9 14 Noroeste 22 Noroeste 0 -- -- 81
2020-08-31 06:00:00 5.9 12 Noroeste 16 Noroeste 0 -- -- 84
2020-08-31 05:00:00 6.2 10 Noroeste 26 Noroeste 0 -- -- 84
2020-08-31 04:00:00 6.8 15 Noroeste 27 Noroeste 0 -- -- 81
2020-08-31 03:00:00 7.5 21 Noroeste 31 Noroeste 0 -- -- 80
2020-08-31 02:00:00 7.3 18 Noroeste 30 Noroeste 0 -- -- 80
2020-08-31 01:00:00 7.2 16 Noroeste 28 Norte 0 -- -- 80
2020-08-31 00:00:00 7.6 13 Noroeste 31 Norte 0 -- -- 83
2020-08-30 23:00:00 8.7 21 Norte 36 Norte 0 -- -- 80
2020-08-30 22:00:00 9.6 20 Norte 39 Nordeste 0 -- -- 74
2020-08-30 21:00:00 10.4 20 Norte 35 Norte 0 -- -- 68
2020-08-30 20:00:00 11.7 25 Norte 34 Norte 0 -- -- 62
2020-08-30 19:00:00 13.4 20 Norte 32 Nordeste 0 -- -- 57
2020-08-30 18:00:00 14.5 21 Norte 31 Norte 0 -- -- 54
2020-08-30 17:00:00 15.6 17 Norte 28 Norte 0 -- -- 48
2020-08-30 16:00:00 14.5 14 Norte 31 Norte 0 -- -- 50
2020-08-30 15:00:00 15.1 21 Norte 41 Noroeste 0 -- -- 47
2020-08-30 14:00:00 14.6 14 Norte 34 Norte 0 -- -- 49
2020-08-30 13:00:00 13.2 17 Norte 39 Norte 0 -- -- 55
2020-08-30 12:00:00 12.4 18 Norte 29 Noroeste 0 -- -- 58
2020-08-30 11:00:00 11 16 Noroeste 27 Noroeste 0 -- -- 63
2020-08-30 10:00:00 9.4 21 Noroeste 35 Noroeste 0 -- -- 70
2020-08-30 09:00:00 7.7 17 Noroeste 27 Noroeste 0 -- -- 82
2020-08-30 08:00:00 4.7 6 Norte 23 Noroeste 0 -- -- 87
2020-08-30 07:00:00 5.1 14 Noroeste 24 Noroeste 0 -- -- 83
2020-08-30 06:00:00 5.4 14 Noroeste 29 Noroeste 0 -- -- 81
2020-08-30 05:00:00 6.3 20 Noroeste 32 Noroeste 0 -- -- 76
2020-08-30 04:00:00 6.3 20 Noroeste 33 Noroeste 0 -- -- 76
2020-08-30 03:00:00 7 18 Noroeste 26 Noroeste 0 -- -- 83
2020-08-30 02:00:00 7.4 20 Noroeste 48 Norte 0 -- -- 84
2020-08-30 01:00:00 8.5 26 Norte 49 Norte 0 -- -- 85
2020-08-30 00:00:00 8.8 26 Norte 38 Norte 0 -- -- 84
2020-08-29 23:00:00 9.3 26 Norte 38 Norte 0 -- -- 83
2020-08-29 22:00:00 9.7 20 Norte 32 Norte 0 -- -- 80
2020-08-29 21:00:00 10.6 22 Norte 34 Norte 0 -- -- 77
2020-08-29 20:00:00 10.7 13 Noroeste 51 Norte 1 -- -- 87
2020-08-29 19:00:00 14.9 26 Norte 39 Norte 0 -- -- 52
2020-08-29 18:00:00 16.6 22 Norte 35 Norte 0 -- -- 47
2020-08-29 17:00:00 17.1 22 Noroeste 39 Noroeste 0 -- -- 46
2020-08-29 16:00:00 17.3 24 Norte 38 Norte 0 -- -- 45
2020-08-29 15:00:00 16.6 21 Norte 34 Norte 0 -- -- 47
2020-08-29 14:00:00 15.9 15 Norte 33 Norte 0 -- -- 51
2020-08-29 13:00:00 14.1 19 Norte 32 Norte 0 -- -- 59
2020-08-29 12:00:00 13 18 Noroeste 28 Norte 0 -- -- 64
2020-08-29 11:00:00 11.5 14 Norte 29 Norte 0 -- -- 68
2020-08-29 10:00:00 10.3 12 Norte 20 Norte 0 -- -- 74
2020-08-29 09:00:00 9.1 13 Norte 19 Norte 0 -- -- 82
2020-08-29 08:00:00 9 13 Norte 27 Norte 0 -- -- 79
2020-08-29 07:00:00 9.3 11 Norte 23 Norte 0 -- -- 76
2020-08-29 06:00:00 9.3 15 Norte 29 Norte 0 -- -- 77
2020-08-29 05:00:00 9.3 17 Norte 32 Norte 0 -- -- 78
2020-08-29 04:00:00 9.6 11 Norte 28 Norte 0 -- -- 80
2020-08-29 03:00:00 9.6 20 Norte 32 Norte 0 -- -- 86
2020-08-29 02:00:00 10.1 16 Norte 33 Norte 0 -- -- 88
2020-08-29 01:00:00 10.4 19 Norte 31 Norte 0 -- -- 90
2020-08-29 00:00:00 10.4 14 Norte 24 Norte 0 -- -- 87
2020-08-28 23:00:00 11.1 12 Norte 24 Norte 0 -- -- 89
2020-08-28 22:00:00 12.1 17 Norte 27 Norte 0 -- -- 88
2020-08-28 21:00:00 13.2 20 Norte 31 Norte 0 -- -- 84
2020-08-28 20:00:00 15.2 17 Norte 28 Norte 0 -- -- 79
2020-08-28 19:00:00 17.5 18 Nordeste 32 Nordeste 0 -- -- 73
2020-08-28 18:00:00 20.5 21 Nordeste 32 Nordeste 0 -- -- 66
2020-08-28 17:00:00 22.1 16 Nordeste 28 Este 0 -- -- 63
2020-08-28 16:00:00 23.6 15 Nordeste 25 Este 0 -- -- 60
2020-08-28 15:00:00 24.4 9 Nordeste 22 Nordeste 0 -- -- 58
2020-08-28 14:00:00 23 15 Nordeste 23 Nordeste 0 -- -- 62
2020-08-28 13:00:00 23.8 10 Nordeste 22 Norte 0 -- -- 60
2020-08-28 12:00:00 21.7 7 Norte 15 Norte 0 -- -- 69
2020-08-28 11:00:00 20.8 6 Norte 14 Norte 0 -- -- 72
2020-08-28 10:00:00 18.9 4 Noroeste 13 Norte 0 -- -- 79
2020-08-28 09:00:00 16.5 4 Noroeste 14 Noroeste 0 -- -- 88
2020-08-28 08:00:00 16.6 5 Sur 11 Sur 0 -- -- 81
2020-08-28 07:00:00 17.3 7 Sur 11 Sur 0 -- -- 76
2020-08-28 06:00:00 17.5 5 Sur 8 Sur 0 -- -- 76
2020-08-28 05:00:00 17.5 4 Sur 9 Sur 0 -- -- 76
2020-08-28 04:00:00 17.9 0 Calma 9 Sur 0 -- -- 76
2020-08-28 03:00:00 17.7 4 Sur 10 Sudoeste 0 -- -- 75
2020-08-28 02:00:00 19 5 Noroeste 8 Nordeste 0 -- -- 74
2020-08-28 01:00:00 20.3 3 Noroeste 10 Norte 0 -- -- 73
2020-08-28 00:00:00 22.3 9 Oeste 22 Sudoeste 0 -- -- 63
2020-08-27 23:00:00 21.4 2 Este 10 Sur 0 -- -- 57
2020-08-27 22:00:00 22.4 5 Sur 17 Sur 0 -- -- 54
2020-08-27 21:00:00 23.7 11 Sur 19 Sudeste 0 -- -- 51
2020-08-27 20:00:00 25.7 14 Sudeste 22 Sudeste 0 -- -- 48
2020-08-27 19:00:00 27.6 12 Sudeste 24 Este 0 -- -- 39
2020-08-27 18:00:00 28.4 12 Sudeste 26 Este 0 -- -- 38
2020-08-27 17:00:00 28.7 12 Este 25 Este 0 -- -- 38
2020-08-27 16:00:00 28.4 12 Nordeste 26 Este 0 -- -- 40
2020-08-27 15:00:00 28.3 13 Este 25 Este 0 -- -- 41
2020-08-27 14:00:00 28.3 17 Nordeste 26 Este 0 -- -- 39
2020-08-27 13:00:00 28.8 7 Este 15 Este 0 -- -- 41
2020-08-27 12:00:00 27.9 5 Nordeste 12 Norte 0 -- -- 44
2020-08-27 11:00:00 26.5 4 Este 9 Este 0 -- -- 45
2020-08-27 10:00:00 25 0 Calma 5 Este 0 -- -- 51
2020-08-27 09:00:00 22.5 0 Calma 5 Sur 0 -- -- 56
2020-08-27 08:00:00 18.5 0 Calma 9 Sur 0 -- -- 67
2020-08-27 07:00:00 18.2 6 Sur 11 Sur 0 -- -- 68
2020-08-27 06:00:00 18.5 6 Sur 9 Sur 0 -- -- 67
2020-08-27 05:00:00 18.4 7 Sur 9 Sur 0 -- -- 69
2020-08-27 04:00:00 19.1 6 Sur 8 Sudoeste 0 -- -- 67
2020-08-27 03:00:00 20.2 5 Sudoeste 7 Sur 0 -- -- 63
2020-08-27 02:00:00 20.6 3 Sur 10 Sur 0 -- -- 62
2020-08-27 01:00:00 20.3 4 Sudoeste 6 Sudoeste 0 -- -- 63
2020-08-27 00:00:00 21.8 2 Nordeste 8 Oeste 0 -- -- 57
2020-08-26 23:00:00 22.4 3 Sudeste 12 Sudeste 0 -- -- 54
2020-08-26 22:00:00 22.7 4 Sur 12 Este 0 -- -- 52
2020-08-26 21:00:00 24.3 4 Sudeste 16 Sudeste 0 -- -- 48
2020-08-26 20:00:00 26.5 10 Este 20 Este 0 -- -- 44
2020-08-26 19:00:00 28.1 13 Sudeste 24 Sudeste 0 -- -- 40
2020-08-26 18:00:00 28.9 10 Este 24 Este 0 -- -- 38
2020-08-26 17:00:00 29.2 10 Este 25 Nordeste 0 -- -- 39
2020-08-26 16:00:00 28.6 14 Este 27 Nordeste 0 -- -- 40
2020-08-26 15:00:00 28.4 14 Este 23 Este 0 -- -- 42
2020-08-26 14:00:00 28.9 11 Este 19 Este 0 -- -- 41
2020-08-26 13:00:00 28.2 10 Este 19 Nordeste 0 -- -- 44
2020-08-26 12:00:00 29.4 4 Sudeste 14 Este 0 -- -- 42
2020-08-26 11:00:00 28.4 6 Noroeste 14 Oeste 0 -- -- 43
2020-08-26 10:00:00 26.4 10 Sudoeste 18 Sudoeste 0 -- -- 48
2020-08-26 09:00:00 23.4 16 Sudoeste 21 Sudoeste 0 -- -- 54
2020-08-26 08:00:00 19.2 17 Sudoeste 26 Sudoeste 0 -- -- 67
2020-08-26 07:00:00 17.9 24 Sudoeste 28 Sudoeste 0 -- -- 73
2020-08-26 06:00:00 18.4 10 Sudoeste 15 Sudoeste 0 -- -- 69
2020-08-26 05:00:00 18.9 6 Sudoeste 31 Sudoeste 0 -- -- 70
2020-08-26 04:00:00 19.8 27 Sudoeste 35 Sudoeste 0 -- -- 69
2020-08-26 03:00:00 20.5 28 Sudoeste 37 Sudoeste 0 -- -- 68
2020-08-26 02:00:00 20 2 Sur 23 Sudoeste 0 -- -- 69
2020-08-26 01:00:00 21.5 20 Sudoeste 26 Sudoeste 0 -- -- 67
2020-08-26 00:00:00 22.4 22 Sudoeste 27 Sudoeste 0 -- -- 66